Time;durP1;ratioP1;P1;durP2;ratioP2;P2;SDS_P1;SDS_P2;PMS_P1;PMS_P2;Temp;Humidity;BMP_temperature;BMP_pressure;BME280_temperature;BME280_humidity;BME280_pressure;Samples;Min_cycle;Max_cycle;Signal;HPM_P1;HPM_P2
2022/01/27 00:02:20;;;;;;;;;58.25;44.25;;;;;4.58;74.45;102448.47;5052731;28;45480;-70
2022/01/27 00:04:52;;;;;;;;;59.25;45.00;;;;;4.60;73.80;102448.50;5058497;28;45260;-74
2022/01/27 00:07:18;;;;;;;;;61.25;46.50;;;;;4.59;74.11;102442.41;5042596;28;45406;-73
2022/01/27 00:09:50;;;;;;;;;58.50;44.25;;;;;4.64;74.12;102439.88;5036833;28;47001;-66
2022/01/27 00:12:18;;;;;;;;;58.25;46.00;;;;;4.67;73.90;102439.94;5057709;28;45383;-70
2022/01/27 00:14:46;;;;;;;;;62.50;45.00;;;;;4.67;73.25;102443.38;5077860;28;45463;-74
2022/01/27 00:17:14;;;;;;;;;57.75;43.25;;;;;4.69;73.28;102440.81;5078071;28;45430;-69
2022/01/27 00:19:43;;;;;;;;;60.00;45.25;;;;;4.72;73.32;102439.97;5078667;28;46936;-68
2022/01/27 00:22:09;;;;;;;;;57.00;40.75;;;;;4.72;72.91;102435.66;5076146;28;45503;-69
2022/01/27 00:24:34;;;;;;;;;58.00;42.50;;;;;4.72;72.96;102437.38;5058997;28;45248;-66
2022/01/27 00:27:00;;;;;;;;;65.00;46.25;;;;;4.72;73.11;102424.34;5057172;28;45584;-68
2022/01/27 00:29:25;;;;;;;;;57.00;42.50;;;;;4.76;73.56;102432.22;5051303;28;46541;-63
2022/01/27 00:31:51;;;;;;;;;61.75;45.25;;;;;4.80;73.25;102422.72;5057392;28;45486;-68
2022/01/27 00:34:16;;;;;;;;;56.50;43.75;;;;;4.82;73.04;102421.03;5048769;28;46089;-71
2022/01/27 00:36:41;;;;;;;;;55.25;42.25;;;;;4.88;73.09;102420.22;5057833;28;45407;-71
2022/01/27 00:39:07;;;;;;;;;56.50;44.75;;;;;4.88;72.83;102410.66;5059964;28;46100;-69
2022/01/27 00:41:32;;;;;;;;;55.50;43.75;;;;;4.92;72.94;102416.78;5059945;28;45462;-67
2022/01/27 00:43:57;;;;;;;;;53.50;42.25;;;;;4.97;73.00;102420.31;5060199;28;45455;-71
2022/01/27 00:46:23;;;;;;;;;55.00;42.00;;;;;5.00;72.63;102411.69;5057720;28;45642;-66
2022/01/27 00:48:49;;;;;;;;;55.50;44.00;;;;;5.00;72.64;102403.84;5055939;28;47010;-71
2022/01/27 00:51:21;;;;;;;;;60.25;45.00;;;;;4.99;72.20;102399.50;5054490;28;45556;-70
2022/01/27 00:53:54;;;;;;;;;60.25;44.25;;;;;4.99;72.30;102396.88;5055189;28;45603;-70
2022/01/27 00:56:27;;;;;;;;;53.25;41.00;;;;;5.02;72.67;102399.53;5053425;28;45588;-71
2022/01/27 01:01:26;;;;;;;;;54.75;41.50;;;;;5.02;72.19;102381.28;5052861;28;45604;-68
2022/01/27 01:03:56;;;;;;;;;55.00;42.00;;;;;5.00;72.14;102393.44;5053276;28;45512;-69
2022/01/27 01:06:35;;;;;;;;;54.00;42.25;;;;;5.00;72.12;102385.59;5054331;28;45447;-69
2022/01/27 01:19:20;;;;;;;;;65.50;47.25;;;;;5.07;72.25;102370.03;5060890;28;45383;-70
2022/01/27 01:32:34;;;;;;;;;55.00;41.25;;;;;5.03;72.41;102360.41;5063454;28;45403;-64
2022/01/27 01:35:01;;;;;;;;;60.75;44.75;;;;;5.00;72.52;102363.00;5062536;28;45500;-60
2022/01/27 01:37:26;;;;;;;;;57.50;44.75;;;;;4.98;72.52;102354.28;5058450;28;45720;-59
2022/01/27 01:39:51;;;;;;;;;55.00;42.25;;;;;5.00;72.57;102349.09;5059307;28;46257;-65
2022/01/27 01:42:17;;;;;;;;;57.25;39.25;;;;;5.00;72.68;102356.91;5059674;28;45860;-59
2022/01/27 01:44:45;;;;;;;;;57.00;45.00;;;;;4.94;72.40;102336.84;5059459;28;45826;-62
2022/01/27 01:47:10;;;;;;;;;58.50;41.25;;;;;5.00;72.25;102349.09;5073953;28;45494;-66
2022/01/27 01:49:36;;;;;;;;;58.75;42.75;;;;;4.99;72.38;102347.34;5073032;28;45838;-69
2022/01/27 01:52:07;;;;;;;;;53.50;42.00;;;;;4.95;72.60;102349.91;5064489;28;45426;-59
2022/01/27 01:54:33;;;;;;;;;60.75;45.00;;;;;4.97;72.73;102348.19;5059611;28;45462;-70
2022/01/27 01:56:59;;;;;;;;;59.50;43.25;;;;;4.97;72.89;102344.69;5062579;28;45447;-70
2022/01/27 01:59:25;;;;;;;;;60.75;45.00;;;;;4.92;72.99;102347.28;5058809;28;45324;-67
2022/01/27 02:01:51;;;;;;;;;60.25;46.00;;;;;4.91;73.01;102344.63;5058929;28;45520;-71
2022/01/27 02:04:16;;;;;;;;;65.00;47.75;;;;;4.89;73.08;102346.34;5059284;28;45446;-70
2022/01/27 02:06:57;;;;;;;;;59.25;45.00;;;;;4.87;72.95;102342.84;5064208;28;45558;-69
2022/01/27 02:20:01;;;;;;;;;69.50;51.00;;;;;4.76;73.61;102314.00;5056568;28;45830;-62
2022/01/27 02:22:27;;;;;;;;;65.00;47.00;;;;;4.72;73.17;102323.53;5056579;28;45445;-60
2022/01/27 02:24:53;;;;;;;;;62.25;47.50;;;;;4.67;73.95;102326.09;5056801;28;45450;-67
2022/01/27 02:27:20;;;;;;;;;63.00;47.25;;;;;4.68;73.34;102320.00;5060032;28;45280;-68
2022/01/27 02:29:46;;;;;;;;;67.75;49.75;;;;;4.69;73.92;102323.50;5038900;28;46255;-69
2022/01/27 02:32:15;;;;;;;;;67.75;51.00;;;;;4.61;74.44;102310.38;5061703;28;45459;-71
2022/01/27 02:34:41;;;;;;;;;69.00;51.00;;;;;4.68;74.08;102316.56;5058072;28;45385;-70
2022/01/27 02:37:08;;;;;;;;;67.25;48.25;;;;;4.72;73.98;102317.44;5040171;28;45463;-68
2022/01/27 02:39:34;;;;;;;;;61.00;46.50;;;;;4.68;74.18;102317.41;5058421;28;45680;-71
2022/01/27 02:42:25;;;;;;;;;61.50;45.00;;;;;4.67;74.37;102305.22;5059450;28;45544;-71
2022/01/27 02:44:54;;;;;;;;;69.50;49.50;;;;;4.65;74.20;102311.28;5054987;28;45536;-64
2022/01/27 02:47:20;;;;;;;;;65.25;50.00;;;;;4.63;74.73;102300.84;5057856;28;45610;-64
2022/01/27 02:49:46;;;;;;;;;66.50;48.75;;;;;4.66;74.20;102302.63;5057034;28;46382;-65
2022/01/27 02:52:12;;;;;;;;;68.00;50.50;;;;;4.66;74.72;102293.06;5054127;28;45429;-64
2022/01/27 02:54:37;;;;;;;;;59.75;48.00;;;;;4.63;74.73;102286.94;5059191;28;45461;-61
2022/01/27 02:57:03;;;;;;;;;70.00;50.00;;;;;4.67;74.55;102301.75;5059701;28;45595;-66
2022/01/27 02:59:29;;;;;;;;;69.50;48.75;;;;;4.66;74.72;102298.25;5058855;28;46597;-64
2022/01/27 03:01:55;;;;;;;;;67.75;49.75;;;;;4.67;75.01;102294.81;5057570;28;45362;-64
2022/01/27 03:04:23;;;;;;;;;65.50;51.00;;;;;4.68;74.87;102298.28;5058411;28;45252;-71
2022/01/27 03:06:49;;;;;;;;;68.00;49.25;;;;;4.62;74.47;102283.44;5058806;28;45523;-67
2022/01/27 03:09:15;;;;;;;;;63.00;48.50;;;;;4.69;74.62;102287.00;5058505;28;46603;-67
2022/01/27 03:11:46;;;;;;;;;69.75;50.00;;;;;4.73;74.82;102293.13;5058006;28;45557;-69
2022/01/27 03:14:18;;;;;;;;;62.50;47.75;;;;;4.73;74.66;102293.13;5059202;28;45326;-66
2022/01/27 03:16:44;;;;;;;;;63.00;46.75;;;;;4.73;74.79;102295.72;5040493;28;45571;-66
2022/01/27 03:19:11;;;;;;;;;65.75;47.25;;;;;4.72;74.88;102289.66;5058685;28;46937;-68
2022/01/27 03:21:37;;;;;;;;;61.75;48.50;;;;;4.67;74.53;102288.72;5062393;28;45394;-67
2022/01/27 03:24:03;;;;;;;;;71.75;50.00;;;;;4.62;75.07;102279.97;5058248;28;45397;-68
2022/01/27 03:26:29;;;;;;;;;63.50;47.50;;;;;4.59;74.70;102278.19;5058939;28;45248;-70
2022/01/27 03:28:54;;;;;;;;;68.75;48.50;;;;;4.66;75.12;102289.59;5041246;28;46941;-70
2022/01/27 03:31:20;;;;;;;;;55.00;40.00;;;;;4.64;74.97;102284.34;5058376;28;45154;-71
2022/01/27 03:33:46;;;;;;;;;59.25;47.00;;;;;4.64;74.98;102286.94;5058373;28;45364;-67
2022/01/27 03:36:13;;;;;;;;;63.00;47.00;;;;;4.67;75.26;102291.34;5061552;28;45272;-65
2022/01/27 03:38:39;;;;;;;;;69.00;50.50;;;;;4.66;74.95;102292.19;5050642;28;48009;-68
2022/01/27 03:41:07;;;;;;;;;64.00;45.50;;;;;4.60;74.76;102281.69;5047437;28;45225;-70
2022/01/27 03:43:33;;;;;;;;;63.50;46.75;;;;;4.62;75.10;102286.06;5065177;28;45227;-71
2022/01/27 03:45:59;;;;;;;;;63.75;47.75;;;;;4.68;75.10;102293.09;5066128;28;45228;-68
2022/01/27 03:48:24;;;;;;;;;60.75;46.50;;;;;4.67;74.82;102294.81;5063769;28;46418;-68
2022/01/27 03:50:50;;;;;;;;;67.25;48.50;;;;;4.69;74.96;102292.22;5058344;28;46723;-68
2022/01/27 03:53:15;;;;;;;;;61.75;44.75;;;;;4.70;75.10;102295.69;5057575;28;45328;-65
2022/01/27 03:55:42;;;;;;;;;61.25;45.00;;;;;4.71;75.37;102285.31;5058789;28;45412;-68
2022/01/27 03:58:07;;;;;;;;;65.75;48.00;;;;;4.68;75.24;102283.53;5059415;28;46223;-65
2022/01/27 04:00:34;;;;;;;;;62.75;47.75;;;;;4.66;74.85;102273.94;5059040;28;45415;-65
2022/01/27 04:03:05;;;;;;;;;62.50;45.75;;;;;4.67;75.13;102284.38;5058091;28;45349;-69
2022/01/27 04:05:37;;;;;;;;;61.00;48.00;;;;;4.69;74.98;102284.41;5058689;28;45394;-66
2022/01/27 04:08:05;;;;;;;;;63.75;49.25;;;;;4.71;75.39;102282.69;5048442;28;46255;-67
2022/01/27 04:10:31;;;;;;;;;61.00;45.00;;;;;4.70;74.74;102290.47;5059939;28;45456;-69
2022/01/27 04:12:56;;;;;;;;;66.00;45.75;;;;;4.70;75.01;102282.66;5057029;28;45441;-66
2022/01/27 04:15:22;;;;;;;;;64.25;45.75;;;;;4.71;75.08;102287.91;5056392;28;45461;-67
2022/01/27 04:17:48;;;;;;;;;59.75;46.00;;;;;4.67;75.11;102276.56;5046592;28;48142;-70
2022/01/27 04:20:14;;;;;;;;;63.25;47.50;;;;;4.66;75.36;102276.56;5055839;28;45424;-66
2022/01/27 04:22:40;;;;;;;;;62.75;47.50;;;;;4.62;75.37;102269.56;5064789;28;45445;-68
2022/01/27 04:25:05;;;;;;;;;63.50;47.00;;;;;4.67;74.87;102273.94;5068445;28;45550;-60
2022/01/27 04:27:34;;;;;;;;;61.25;47.50;;;;;4.71;75.18;102280.09;5058107;28;45544;-61
2022/01/27 04:30:02;;;;;;;;;65.00;47.75;;;;;4.71;75.09;102273.97;5057959;28;45285;-63
2022/01/27 04:32:33;;;;;;;;;57.00;43.00;;;;;4.71;74.93;102287.91;5055736;28;45552;-62
2022/01/27 04:35:03;;;;;;;;;65.75;47.25;;;;;4.71;74.87;102290.50;5058686;28;45539;-62
2022/01/27 04:37:31;;;;;;;;;58.25;45.25;;;;;4.69;74.89;102281.81;5054894;28;47232;-64
2022/01/27 04:40:09;;;;;;;;;57.25;43.75;;;;;4.68;75.44;102280.06;5054056;28;45661;-66
2022/01/27 04:45:22;;;;;;;;;61.00;46.00;;;;;4.68;75.09;102291.34;5054522;28;45538;-62
2022/01/27 04:47:51;;;;;;;;;61.50;43.00;;;;;4.62;74.88;102272.16;5054357;28;46891;-62
2022/01/27 04:50:17;;;;;;;;;60.75;45.00;;;;;4.63;74.40;102281.72;5055125;28;45398;-62
2022/01/27 04:52:45;;;;;;;;;59.25;45.25;;;;;4.62;75.01;102278.22;5054637;28;45478;-68
2022/01/27 04:55:13;;;;;;;;;62.75;46.50;;;;;4.63;75.17;102279.97;5055321;28;45580;-67
2022/01/27 04:57:42;;;;;;;;;56.75;44.00;;;;;4.65;75.15;102277.41;5060471;28;45628;-60
2022/01/27 05:00:10;;;;;;;;;59.50;44.50;;;;;4.64;75.14;102276.53;5059179;28;45473;-60
2022/01/27 05:02:55;;;;;;;;;57.00;45.50;;;;;4.59;75.12;102265.16;5058365;28;45417;-62
2022/01/27 05:05:21;;;;;;;;;64.50;46.00;;;;;4.64;75.17;102270.44;5058945;28;45431;-67
2022/01/27 05:07:55;;;;;;;;;54.00;42.00;;;;;4.59;75.44;102267.78;5058888;28;45553;-61
2022/01/27 05:10:23;;;;;;;;;59.25;44.25;;;;;4.61;75.51;102268.66;5059542;28;45088;-63
2022/01/27 05:12:51;;;;;;;;;60.25;45.00;;;;;4.59;75.33;102265.16;5060499;28;45426;-68
2022/01/27 05:15:18;;;;;;;;;62.00;45.00;;;;;4.65;75.14;102269.59;5063026;28;45208;-70
2022/01/27 05:17:43;;;;;;;;;62.00;45.25;;;;;4.65;75.21;102269.59;5061040;28;46046;-64
2022/01/27 05:20:09;;;;;;;;;58.00;43.50;;;;;4.68;75.43;102261.81;5061999;28;45322;-66
2022/01/27 05:22:34;;;;;;;;;64.00;45.25;;;;;4.59;75.11;102248.66;5058559;28;45400;-61
2022/01/27 05:25:00;;;;;;;;;63.50;45.50;;;;;4.65;75.31;102262.63;5061345;28;45771;-60
2022/01/27 05:27:25;;;;;;;;;64.00;47.50;;;;;4.64;75.05;102262.63;5057868;28;45875;-62
2022/01/27 05:29:52;;;;;;;;;61.50;45.25;;;;;4.66;75.46;102266.97;5058437;28;45438;-57
2022/01/27 05:32:18;;;;;;;;;57.75;45.00;;;;;4.66;74.88;102261.78;5058232;28;45537;-63
2022/01/27 05:34:44;;;;;;;;;58.00;44.00;;;;;4.66;75.19;102260.91;5058417;28;45510;-68
2022/01/27 05:37:09;;;;;;;;;60.25;43.25;;;;;4.67;75.43;102267.88;5060164;28;45995;-67
2022/01/27 05:39:35;;;;;;;;;62.75;45.25;;;;;4.66;75.53;102269.59;5042870;28;45946;-65
2022/01/27 05:42:00;;;;;;;;;55.50;43.00;;;;;4.69;75.35;102268.78;5062177;28;45419;-68
2022/01/27 05:44:26;;;;;;;;;56.25;44.25;;;;;4.69;75.35;102263.56;5063821;28;45488;-67
2022/01/27 05:46:51;;;;;;;;;63.50;45.50;;;;;4.64;75.22;102249.59;5063667;28;46142;-66
2022/01/27 05:49:16;;;;;;;;;55.25;42.00;;;;;4.69;75.81;102255.72;5061520;28;48215;-69
2022/01/27 05:51:42;;;;;;;;;59.75;44.25;;;;;4.68;75.48;102254.84;5059987;28;45245;-62
2022/01/27 05:54:07;;;;;;;;;59.50;45.00;;;;;4.68;75.12;102251.38;5059998;28;45275;-69
2022/01/27 05:56:32;;;;;;;;;55.50;41.75;;;;;4.69;75.29;102250.53;5059613;28;45331;-69
2022/01/27 05:58:58;;;;;;;;;56.25;39.75;;;;;4.65;75.29;102246.13;5063180;28;45249;-63
2022/01/27 06:01:23;;;;;;;;;52.75;40.50;;;;;4.63;74.86;102251.31;5070118;28;45211;-64
2022/01/27 06:03:48;;;;;;;;;60.75;42.75;;;;;4.58;75.23;102247.78;5068679;28;45222;-61
2022/01/27 06:06:14;;;;;;;;;58.75;44.75;;;;;4.61;75.24;102249.56;5060108;28;45224;-67
2022/01/27 06:08:39;;;;;;;;;55.25;44.25;;;;;4.64;75.32;102262.63;5059630;28;45236;-60
2022/01/27 06:11:05;;;;;;;;;57.00;44.00;;;;;4.65;75.68;102267.84;5063043;28;45472;-65
2022/01/27 06:13:31;;;;;;;;;55.00;40.50;;;;;4.62;75.76;102259.13;5061038;28;45565;-67
2022/01/27 06:15:56;;;;;;;;;56.75;43.75;;;;;4.63;74.89;102268.69;5058846;28;46051;-65
2022/01/27 06:18:22;;;;;;;;;57.00;43.00;;;;;4.66;75.21;102273.94;5058892;28;46916;-68
2022/01/27 06:20:47;;;;;;;;;50.75;41.25;;;;;4.61;75.48;102270.41;5059337;28;45325;-66
2022/01/27 06:23:14;;;;;;;;;58.50;42.00;;;;;4.59;75.61;102270.38;5059269;28;45490;-69
2022/01/27 06:25:39;;;;;;;;;57.75;39.75;;;;;4.55;75.72;102272.94;5059504;28;45393;-69
2022/01/27 06:28:05;;;;;;;;;59.00;41.75;;;;;4.52;76.05;102266.84;5058110;28;45431;-68
2022/01/27 06:30:34;;;;;;;;;54.75;41.75;;;;;4.62;76.10;102269.56;5059194;28;45215;-70
2022/01/27 06:33:02;;;;;;;;;59.50;41.25;;;;;4.62;75.69;102283.44;5058426;28;45439;-68
2022/01/27 06:35:27;;;;;;;;;53.50;42.50;;;;;4.63;76.04;102284.34;5059577;28;46176;-67
2022/01/27 06:37:52;;;;;;;;;53.75;42.25;;;;;4.62;75.17;102282.59;5060361;28;45277;-69
2022/01/27 06:40:18;;;;;;;;;62.50;42.75;;;;;4.61;75.58;102278.22;5059532;28;45461;-70
2022/01/27 06:42:43;;;;;;;;;55.25;41.00;;;;;4.65;75.63;102285.22;5059690;28;45432;-70
2022/01/27 06:45:10;;;;;;;;;58.00;43.25;;;;;4.70;75.41;102280.94;5058882;28;46034;-70
2022/01/27 06:47:36;;;;;;;;;55.25;45.25;;;;;4.73;75.64;102274.88;5061224;28;45453;-68
2022/01/27 06:50:03;;;;;;;;;68.00;47.00;;;;;4.74;75.86;102280.13;5063612;28;45566;-69
2022/01/27 06:52:29;;;;;;;;;60.25;44.50;;;;;4.76;75.31;102283.63;5062379;28;45540;-68
2022/01/27 06:54:55;;;;;;;;;64.25;46.75;;;;;4.64;75.32;102267.84;5059014;28;45349;-64
2022/01/27 06:57:22;;;;;;;;;54.75;42.25;;;;;4.71;75.04;102289.63;5059083;28;45462;-68
2022/01/27 06:59:47;;;;;;;;;57.25;40.50;;;;;4.67;75.17;102292.19;5042691;28;45390;-70
2022/01/27 07:02:13;;;;;;;;;54.50;41.00;;;;;4.67;75.29;102286.97;5061063;28;45470;-65
2022/01/27 07:04:38;;;;;;;;;54.00;41.50;;;;;4.70;75.01;102282.66;5059208;28;46934;-61
2022/01/27 07:07:04;;;;;;;;;54.00;42.75;;;;;4.73;75.43;102291.41;5059570;28;45389;-71
2022/01/27 07:09:29;;;;;;;;;54.25;42.50;;;;;4.75;75.39;102292.31;5060270;28;45442;-71
2022/01/27 07:11:54;;;;;;;;;51.75;39.00;;;;;4.79;75.30;102303.66;5058474;28;45497;-70
2022/01/27 07:14:20;;;;;;;;;54.75;42.50;;;;;4.82;75.78;102299.34;5058397;28;46164;-71
2022/01/27 07:16:46;;;;;;;;;59.00;45.00;;;;;4.87;75.71;102302.00;5058186;28;45374;-63
2022/01/27 07:19:11;;;;;;;;;54.50;41.50;;;;;4.89;75.09;102300.28;5056181;28;45345;-64
2022/01/27 07:21:37;;;;;;;;;51.50;40.00;;;;;4.86;74.65;102291.53;5060098;28;46067;-71
2022/01/27 07:24:03;;;;;;;;;58.25;40.25;;;;;4.85;74.58;102288.06;5059423;28;45225;-65
2022/01/27 07:26:28;;;;;;;;;70.00;48.75;;;;;4.86;74.83;102286.31;5062131;28;45502;-69
2022/01/27 07:28:54;;;;;;;;;58.00;41.25;;;;;4.85;75.16;102295.00;5058523;28;45441;-66
2022/01/27 07:31:20;;;;;;;;;58.50;40.75;;;;;4.88;75.07;102295.94;5058470;28;45424;-66
2022/01/27 07:33:47;;;;;;;;;56.75;43.50;;;;;4.91;74.84;102290.75;5058056;28;46117;-67
2022/01/27 07:36:15;;;;;;;;;49.50;38.75;;;;;4.91;74.96;102292.47;5058960;28;45276;-63
2022/01/27 07:38:40;;;;;;;;;54.00;41.50;;;;;4.92;75.10;102284.69;5052534;28;45554;-67
2022/01/27 07:41:06;;;;;;;;;48.00;36.00;;;;;4.92;75.08;102281.19;5057282;28;45556;-64
2022/01/27 07:43:31;;;;;;;;;54.50;40.25;;;;;4.94;75.08;102284.69;5056916;28;46293;-64
2022/01/27 07:45:57;;;;;;;;;55.75;40.75;;;;;4.92;75.11;102279.47;5057911;28;45729;-66
2022/01/27 07:48:22;;;;;;;;;52.75;40.50;;;;;4.97;74.88;102293.44;5050891;28;45444;-65
2022/01/27 07:50:48;;;;;;;;;56.50;39.75;;;;;5.05;75.52;102290.03;5039590;28;45375;-63
2022/01/27 07:53:14;;;;;;;;;53.50;42.25;;;;;5.04;75.62;102283.91;5038087;28;47154;-67
2022/01/27 07:55:39;;;;;;;;;56.50;43.00;;;;;5.08;76.92;102288.31;5054502;28;45386;-61
2022/01/27 07:58:05;;;;;;;;;68.50;42.50;;;;;5.10;75.49;102289.19;5056982;28;45166;-62
2022/01/27 08:00:30;;;;;;;;;57.75;42.25;;;;;5.10;75.31;102286.59;5057224;28;45466;-63
2022/01/27 08:02:56;;;;;;;;;52.75;41.00;;;;;5.07;75.65;102289.16;5057369;28;45415;-59
2022/01/27 08:05:21;;;;;;;;;58.25;43.50;;;;;5.09;75.33;102297.88;5057224;28;45359;-63
2022/01/27 08:07:47;;;;;;;;;55.75;41.00;;;;;5.10;75.26;102294.41;5057490;28;45466;-66
2022/01/27 08:10:13;;;;;;;;;65.25;45.00;;;;;5.10;74.93;102297.03;5057335;28;45326;-67
2022/01/27 08:12:40;;;;;;;;;60.75;43.50;;;;;5.10;74.94;102299.63;5056502;28;45405;-69
2022/01/27 08:15:06;;;;;;;;;50.00;39.25;;;;;5.10;76.70;102306.59;5041109;28;45268;-64
2022/01/27 08:17:32;;;;;;;;;62.50;46.50;;;;;5.12;75.27;102303.13;5057192;28;45212;-58
2022/01/27 08:19:57;;;;;;;;;54.25;41.00;;;;;5.14;74.56;102292.72;5057409;28;45693;-67
2022/01/27 08:22:23;;;;;;;;;57.25;41.25;;;;;5.16;74.82;102308.38;5057892;28;45296;-60
2022/01/27 08:24:49;;;;;;;;;58.00;38.75;;;;;5.15;75.00;102304.00;5058489;28;45260;-73
2022/01/27 08:27:18;;;;;;;;;56.50;44.00;;;;;5.13;74.58;102298.78;5057819;28;45309;-58
2022/01/27 08:29:49;;;;;;;;;58.00;42.50;;;;;5.12;74.73;102303.13;5056110;28;45324;-63
2022/01/27 08:32:27;;;;;;;;;51.25;40.50;;;;;5.17;74.87;102315.34;5054716;28;45466;-60
2022/01/27 08:34:52;;;;;;;;;49.25;42.00;;;;;5.19;74.87;102311.00;5056467;28;45636;-62
2022/01/27 08:37:18;;;;;;;;;57.50;43.00;;;;;5.20;74.54;102316.25;5056931;28;45510;-62
2022/01/27 08:39:46;;;;;;;;;45.25;37.50;;;;;5.17;74.38;102305.78;5060298;28;45394;-64
2022/01/27 08:42:12;;;;;;;;;54.25;43.25;;;;;5.21;74.50;102311.91;5048511;28;45531;-68
2022/01/27 08:44:38;;;;;;;;;51.50;40.75;;;;;5.22;74.04;102308.44;5056732;28;45487;-67
2022/01/27 08:47:04;;;;;;;;;58.50;42.75;;;;;5.18;74.69;102307.53;5039949;28;45631;-66
2022/01/27 08:49:30;;;;;;;;;57.75;42.75;;;;;5.19;74.62;102311.00;5037967;28;45420;-72
2022/01/27 08:51:56;;;;;;;;;55.00;39.50;;;;;5.24;74.59;102318.03;5034480;28;47047;-76
2022/01/27 08:54:22;;;;;;;;;53.75;41.00;;;;;5.31;74.42;102313.78;5023966;28;45529;-67
2022/01/27 08:56:48;;;;;;;;;53.00;41.75;;;;;5.35;74.52;102310.34;5041741;28;45273;-70
2022/01/27 08:59:16;;;;;;;;;57.25;43.00;;;;;5.36;73.86;102309.47;5036451;28;45372;-62
2022/01/27 09:01:42;;;;;;;;;59.75;43.50;;;;;5.30;74.62;102296.38;5035048;28;46735;-69
2022/01/27 09:04:08;;;;;;;;;56.50;41.50;;;;;5.40;73.72;102300.81;5019945;28;45297;-74
2022/01/27 09:06:34;;;;;;;;;55.00;43.25;;;;;5.43;74.49;102299.94;5036341;28;45314;-74
2022/01/27 09:09:00;;;;;;;;;56.00;44.75;;;;;5.49;73.78;102301.75;5037395;28;45245;-75
2022/01/27 09:11:28;;;;;;;;;51.75;41.00;;;;;5.54;74.42;102290.47;5038913;28;47279;-68
2022/01/27 09:13:55;;;;;;;;;60.50;43.00;;;;;5.58;73.75;102285.28;5035806;28;45462;-72
2022/01/27 09:16:20;;;;;;;;;50.75;40.00;;;;;5.65;74.61;102282.75;5035154;28;45327;-72
2022/01/27 09:18:46;;;;;;;;;54.75;39.25;;;;;5.71;73.73;102287.13;5035584;28;45377;-71
2022/01/27 09:21:18;;;;;;;;;47.75;39.25;;;;;5.81;73.75;102275.00;5036563;28;45498;-69
2022/01/27 09:23:44;;;;;;;;;53.25;42.00;;;;;5.90;73.34;102277.69;5037081;28;45329;-74
2022/01/27 09:26:26;;;;;;;;;53.75;42.25;;;;;5.97;72.64;102270.78;5037024;28;45379;-67
2022/01/27 09:28:52;;;;;;;;;58.00;41.75;;;;;6.02;72.80;102278.66;5039456;28;45964;-64
2022/01/27 09:31:18;;;;;;;;;56.25;42.25;;;;;6.05;72.21;102276.97;5035345;28;45958;-68
2022/01/27 09:33:43;;;;;;;;;52.75;41.00;;;;;6.09;71.73;102280.44;5035182;28;45407;-69
2022/01/27 09:36:12;;;;;;;;;53.00;39.50;;;;;6.10;72.99;102274.34;5034880;28;45479;-69
2022/01/27 09:38:38;;;;;;;;;54.00;40.75;;;;;6.10;72.25;102269.13;5034254;28;45192;-66
2022/01/27 09:41:07;;;;;;;;;57.25;42.25;;;;;6.19;71.28;102284.00;5034659;28;45363;-66
2022/01/27 09:43:34;;;;;;;;;60.50;45.00;;;;;6.17;72.04;102273.53;5038861;28;45394;-70
2022/01/27 09:46:04;;;;;;;;;50.00;38.50;;;;;6.28;72.06;102282.28;5038797;28;45447;-74
2022/01/27 09:48:36;;;;;;;;;52.25;40.00;;;;;6.34;72.01;102277.97;5039893;28;45184;-73
2022/01/27 09:51:25;;;;;;;;;52.50;43.50;;;;;6.47;72.19;102290.25;5039533;28;45383;-72
2022/01/27 09:53:53;;;;;;;;;50.25;37.00;;;;;6.53;71.88;102281.53;5043736;28;44619;-73
2022/01/27 09:56:20;;;;;;;;;56.75;43.25;;;;;6.62;70.68;102283.31;5043069;28;45383;-74
2022/01/27 09:58:46;;;;;;;;;56.75;42.75;;;;;6.66;70.89;102279.84;5047895;28;45490;-67
2022/01/27 10:01:12;;;;;;;;;53.75;43.00;;;;;6.68;71.68;102271.13;5037754;28;45478;-69
2022/01/27 10:04:00;;;;;;;;;54.00;41.25;;;;;6.76;71.09;102273.78;5038338;28;45369;-72
2022/01/27 10:06:30;;;;;;;;;53.50;39.25;;;;;6.82;70.99;102267.69;5038761;28;45313;-71
2022/01/27 10:09:19;;;;;;;;;55.75;43.75;;;;;6.89;70.19;102276.44;5038259;28;45324;-74
2022/01/27 10:11:49;;;;;;;;;60.00;44.25;;;;;6.95;69.92;102271.22;5038021;28;46316;-74
2022/01/27 10:14:24;;;;;;;;;50.75;38.50;;;;;6.99;70.11;102271.25;5037598;28;45446;-73
2022/01/27 10:16:56;;;;;;;;;54.75;42.75;;;;;7.07;69.72;102271.22;5039990;28;45475;-73
2022/01/27 10:19:25;;;;;;;;;56.50;41.75;;;;;7.08;69.86;102267.75;5039309;28;45403;-72
2022/01/27 10:22:00;;;;;;;;;56.75;42.50;;;;;7.12;69.56;102264.25;5038949;28;45358;-76
2022/01/27 10:24:30;;;;;;;;;47.25;37.25;;;;;7.25;68.43;102286.09;5038214;28;45395;-73
2022/01/27 10:28:11;;;;;;;;;50.75;40.25;;;;;7.30;68.68;102284.38;5037860;28;45241;-61
2022/01/27 10:32:54;;;;;;;;;55.25;41.50;;;;;7.37;68.26;102285.22;5038124;28;45482;-67
2022/01/27 10:35:26;;;;;;;;;55.25;40.50;;;;;7.36;68.18;102275.63;5037458;28;45376;-68
2022/01/27 10:38:05;;;;;;;;;54.00;41.75;;;;;7.41;68.67;102265.16;5019631;28;45368;-73
2022/01/27 10:40:35;;;;;;;;;52.00;40.00;;;;;7.40;67.64;102269.50;5037629;28;45210;-71
2022/01/27 10:43:20;;;;;;;;;51.50;38.00;;;;;7.40;68.88;102252.94;5021451;28;47891;-69
2022/01/27 10:46:04;;;;;;;;;52.75;40.00;;;;;7.47;67.67;102264.31;5038890;28;45380;-72
2022/01/27 10:48:34;;;;;;;;;54.25;40.75;;;;;7.50;68.02;102265.16;5037413;28;45346;-69
2022/01/27 10:51:15;;;;;;;;;51.00;39.00;;;;;7.56;67.72;102251.22;5037876;28;45547;-70
2022/01/27 10:53:52;;;;;;;;;53.25;42.00;;;;;7.69;67.70;102259.91;5037931;28;46217;-74
2022/01/27 10:56:22;;;;;;;;;52.75;43.25;;;;;7.78;67.86;102262.50;5037685;28;45357;-69
2022/01/27 10:58:48;;;;;;;;;56.25;45.50;;;;;7.84;67.88;102262.50;5037358;28;45557;-72
2022/01/27 11:01:28;;;;;;;;;56.75;40.00;;;;;7.92;68.15;102254.63;5038315;28;45423;-73
2022/01/27 11:03:56;;;;;;;;;54.75;42.00;;;;;7.97;67.03;102250.25;5038795;28;45332;-75
2022/01/27 11:06:25;;;;;;;;;57.75;42.00;;;;;8.01;66.98;102259.00;5036868;28;45417;-72
2022/01/27 11:08:54;;;;;;;;;55.75;41.75;;;;;8.03;66.93;102271.22;5024310;28;45325;-71
2022/01/27 11:11:24;;;;;;;;;51.50;42.75;;;;;8.03;67.06;102268.59;5040536;28;45262;-75
2022/01/27 11:13:51;;;;;;;;;53.75;40.50;;;;;8.08;67.30;102271.22;5039034;28;46066;-69
2022/01/27 11:16:22;;;;;;;;;54.50;42.00;;;;;8.14;66.50;102272.94;5038464;28;45364;-74
2022/01/27 11:18:48;;;;;;;;;56.50;42.75;;;;;8.12;67.14;102272.94;5038826;28;45307;-73
2022/01/27 11:21:33;;;;;;;;;54.75;43.00;;;;;8.16;67.07;102260.69;5040615;28;45524;-67
2022/01/27 11:24:13;;;;;;;;;46.50;38.50;;;;;8.17;66.68;102259.81;5038318;28;47952;-65
2022/01/27 11:26:41;;;;;;;;;61.00;45.25;;;;;8.28;66.39;102262.41;5020191;28;45486;-73
2022/01/27 11:29:09;;;;;;;;;57.25;41.75;;;;;8.28;66.92;102250.16;5036873;28;45438;-65
2022/01/27 11:32:16;;;;;;;;;52.50;39.75;;;;;8.37;66.14;102245.75;5038715;28;45526;-63
2022/01/27 11:34:48;;;;;;;;;53.25;42.00;;;;;8.36;66.54;102254.50;5038078;28;45242;-67
2022/01/27 11:37:18;;;;;;;;;50.75;40.00;;;;;8.37;66.25;102246.66;5019670;28;45349;-65
2022/01/27 11:39:47;;;;;;;;;56.75;43.50;;;;;8.40;65.74;102240.50;5038055;28;45279;-71
2022/01/27 11:42:13;;;;;;;;;51.50;42.00;;;;;8.40;66.10;102233.53;5036638;28;45530;-69
2022/01/27 11:44:43;;;;;;;;;54.50;42.25;;;;;8.39;66.02;102230.88;5034927;28;45443;-64
2022/01/27 11:47:08;;;;;;;;;57.75;43.25;;;;;8.39;65.83;102234.41;5035140;28;45816;-59
2022/01/27 11:49:47;;;;;;;;;49.00;36.50;;;;;8.45;66.01;102223.00;5036370;28;45275;-67
2022/01/27 11:52:23;;;;;;;;;54.75;43.25;;;;;8.52;65.70;102222.16;5036240;28;45416;-67
2022/01/27 11:55:26;;;;;;;;;56.00;41.25;;;;;8.56;66.33;102212.50;5036321;28;45527;-70
2022/01/27 11:57:58;;;;;;;;;57.00;41.50;;;;;8.70;65.90;102215.03;5036386;28;45398;-72
2022/01/27 12:00:28;;;;;;;;;51.00;41.25;;;;;8.78;64.93;102229.00;5036195;28;45331;-70
2022/01/27 12:02:56;;;;;;;;;50.50;40.50;;;;;8.75;64.99;102216.75;5035052;28;45453;-70